createdAt,value
2023-04-26T00:07:46.051Z,18.88
2023-04-26T00:17:55.020Z,14.85
2023-04-26T00:28:03.732Z,15.81
2023-04-26T00:38:13.261Z,16.73
2023-04-26T00:48:22.235Z,15.89
2023-04-26T00:58:32.980Z,14.47
2023-04-26T01:08:32.653Z,12.97
2023-04-26T01:18:41.618Z,15.95
2023-04-26T01:28:50.949Z,12.31
2023-04-26T01:38:59.593Z,13.17
2023-04-26T01:49:08.810Z,15.88
2023-04-26T01:59:18.991Z,15.45
2023-04-26T02:09:18.202Z,15.02
2023-04-26T02:19:27.158Z,14.24
2023-04-26T02:29:44.076Z,16
2023-04-26T02:39:43.645Z,17.56
2023-04-26T02:59:55.038Z,17.51
2023-04-26T03:09:55.154Z,17.21
2023-04-26T03:20:03.655Z,17.36
2023-04-26T03:30:12.519Z,16.12
2023-04-26T03:40:21.737Z,13.81
2023-04-26T03:50:31.309Z,19.94
2023-04-26T04:00:40.216Z,22.66
2023-04-26T04:10:49.801Z,18.14
2023-04-26T04:20:58.763Z,15.52
2023-04-26T04:31:01.394Z,22.02
2023-04-26T04:41:00.621Z,23.8
2023-04-26T04:51:10.088Z,21.94
2023-04-26T05:01:16.359Z,22.6
2023-04-26T05:11:15.280Z,26.39
2023-04-26T05:21:29.256Z,22.34
2023-04-26T05:31:28.171Z,22.64
2023-04-26T05:41:36.989Z,22.4
2023-04-26T05:51:46.749Z,17.22
2023-04-26T06:01:46.775Z,18.5
2023-04-26T06:11:55.665Z,18.22
2023-04-26T06:22:06.108Z,23.01
2023-04-26T06:32:05.129Z,22.86
2023-04-26T06:42:14.210Z,33.85
2023-04-26T06:52:23.344Z,27.68
2023-04-26T07:02:33.174Z,20.44
2023-04-26T07:12:34.758Z,12.34
2023-04-26T07:22:46.729Z,14.74
2023-04-26T07:32:46.230Z,12.29
2023-04-26T07:42:56.457Z,11.33
2023-04-26T07:52:57.420Z,9.81
2023-04-26T08:03:07.038Z,6.15
2023-04-26T08:13:08.140Z,4.73
2023-04-26T08:33:48.009Z,4.21
2023-04-26T09:03:37.328Z,3.46
2023-04-26T09:13:40.810Z,5.04
2023-04-26T09:23:43.359Z,3.61
2023-04-26T09:33:48.636Z,3.54
2023-04-26T09:43:56.482Z,3.61
2023-04-26T09:54:11.900Z,5.92
2023-04-26T10:04:09.186Z,6.2
2023-04-26T10:14:13.885Z,5.95
2023-04-26T10:24:15.125Z,6.05
2023-04-26T10:34:15.211Z,6.33
2023-04-26T10:44:15.483Z,7.44
2023-04-26T10:54:18.909Z,5.17
2023-04-26T11:04:37.256Z,5.32
2023-04-26T11:14:20.730Z,6.39
2023-04-26T11:24:24.672Z,5.84
2023-04-26T11:34:23.555Z,6.9
2023-04-26T11:44:32.719Z,5.75
2023-04-26T11:54:41.612Z,6.67
2023-04-26T12:04:51.206Z,8.67
2023-04-26T12:14:51.425Z,5.79
2023-04-26T12:25:01.597Z,5.9
2023-04-26T12:35:01.779Z,6.25
2023-04-26T12:45:13.772Z,6.77
2023-04-26T12:55:20.532Z,5.23
2023-04-26T13:05:19.704Z,5.1
2023-04-26T13:15:28.714Z,6.13
2023-04-26T13:25:38.769Z,5.31
2023-04-26T13:35:43.266Z,7.58
2023-04-26T13:45:48.746Z,6.29
2023-04-26T13:55:56.011Z,4.66
2023-04-26T14:05:56.551Z,6.13
2023-04-26T14:16:06.363Z,5.03
2023-04-26T14:26:15.325Z,5.15
2023-04-26T14:36:24.432Z,5.91
2023-04-26T14:46:34.714Z,6.16
2023-04-26T14:56:39.428Z,4.77
2023-04-26T15:06:41.419Z,6.17
2023-04-26T15:16:52.311Z,6.92
2023-04-26T15:26:52.209Z,4.41
2023-04-26T15:36:51.687Z,4.84
2023-04-26T15:47:03.330Z,4.68
2023-04-26T15:57:05.363Z,5.62
2023-04-26T16:07:04.318Z,5.79
2023-04-26T16:17:14.203Z,5.91
2023-04-26T16:27:26.156Z,6.41
2023-04-26T16:37:27.618Z,7.13
2023-04-26T16:47:30.722Z,5.41
2023-04-26T16:57:31.135Z,8.57
2023-04-26T17:07:30.679Z,5.76
2023-04-26T17:17:40.284Z,8.01
2023-04-26T17:27:49.351Z,5.17
2023-04-26T17:38:00.588Z,8.98
2023-04-26T17:48:00.725Z,8.09
2023-04-26T17:58:09.514Z,8.68
2023-04-26T18:08:18.538Z,7.75
2023-04-26T18:18:27.954Z,6.35
2023-04-26T18:28:37.921Z,6.26
2023-04-26T18:38:36.902Z,8.18
2023-04-26T18:49:01.716Z,6.83
2023-04-26T18:59:00.470Z,8.17
2023-04-26T19:09:01.178Z,6.62
2023-04-26T19:18:59.934Z,7.55
2023-04-26T19:29:01.674Z,5.94
2023-04-26T19:39:25.418Z,5.49
2023-04-26T19:49:17.572Z,5.61
2023-04-26T19:59:18.924Z,6.87
2023-04-26T20:09:32.383Z,6.04
2023-04-26T20:19:28.486Z,6.17
2023-04-26T20:29:28.308Z,6.48
2023-04-26T20:39:37.356Z,5.47
2023-04-26T20:49:47.457Z,8.38
2023-04-26T20:59:48.756Z,6.07
2023-04-26T21:09:47.600Z,6.21
2023-04-26T21:19:57.599Z,8.58
2023-04-26T21:30:06.365Z,19.96
2023-04-26T21:40:19.210Z,9.25
2023-04-26T21:50:18.203Z,7.25
2023-04-26T22:00:27.305Z,7.01
2023-04-26T22:10:29.323Z,6.65
2023-04-26T22:20:30.303Z,4.4
2023-04-26T22:30:38.248Z,4.92
2023-04-26T22:40:47.482Z,4.49
2023-04-26T22:50:57.378Z,4.6
2023-04-26T23:01:06.416Z,4.38
2023-04-26T23:11:16.799Z,3.64
2023-04-26T23:21:16.359Z,3.38
2023-04-26T23:31:24.940Z,4.7
2023-04-26T23:41:34.310Z,3.89
2023-04-26T23:51:43.285Z,6.29
